createdAt,value
2017-09-24T00:00:01.179Z,25.67
2017-09-24T00:02:28.782Z,26.17
2017-09-24T00:04:57.098Z,25.33
2017-09-24T00:07:24.650Z,26.27
2017-09-24T00:09:52.202Z,26.47
2017-09-24T00:12:19.765Z,25.80
2017-09-24T00:14:47.359Z,24.70
2017-09-24T00:17:14.910Z,25.53
2017-09-24T00:19:42.461Z,24.90
2017-09-24T00:22:10.015Z,25.37
2017-09-24T00:24:37.574Z,25.87
2017-09-24T00:27:05.153Z,25.07
2017-09-24T00:29:32.711Z,25.83
2017-09-24T00:32:00.262Z,25.70
2017-09-24T00:34:27.815Z,25.37
2017-09-24T00:36:55.370Z,25.40
2017-09-24T00:39:22.949Z,25.73
2017-09-24T00:41:50.502Z,25.70
2017-09-24T00:44:18.061Z,27.33
2017-09-24T00:46:45.616Z,26.47
2017-09-24T00:49:13.178Z,26.13
2017-09-24T00:51:40.762Z,26.67
2017-09-24T00:54:08.317Z,25.43
2017-09-24T00:56:35.875Z,25.50
2017-09-24T00:59:04.933Z,26.50
2017-09-24T01:01:32.487Z,26.60
2017-09-24T01:04:00.074Z,25.93
2017-09-24T01:06:27.626Z,26.17
2017-09-24T01:08:55.177Z,26.60
2017-09-24T01:11:22.734Z,26.50
2017-09-24T01:13:50.291Z,27.30
2017-09-24T01:16:17.878Z,24.83
2017-09-24T01:18:45.434Z,26.00
2017-09-24T01:21:12.997Z,25.60
2017-09-24T01:23:40.545Z,26.27
2017-09-24T01:26:08.103Z,27.53
2017-09-24T01:28:35.686Z,26.90
2017-09-24T01:31:04.018Z,27.20
2017-09-24T01:33:31.578Z,26.50
2017-09-24T01:35:59.132Z,27.23
2017-09-24T01:38:26.694Z,25.10
2017-09-24T01:40:54.270Z,26.07
2017-09-24T01:43:21.829Z,26.27
2017-09-24T01:45:49.385Z,27.50
2017-09-24T01:48:16.937Z,24.80
2017-09-24T01:50:44.486Z,27.10
2017-09-24T01:53:12.072Z,26.97
2017-09-24T01:55:39.622Z,26.27
2017-09-24T01:58:07.181Z,27.10
2017-09-24T02:00:34.734Z,23.73
2017-09-24T02:03:02.295Z,25.87
2017-09-24T02:05:29.875Z,24.83
2017-09-24T02:07:57.433Z,25.07
2017-09-24T02:10:24.990Z,24.90
2017-09-24T02:12:52.543Z,25.77
2017-09-24T02:15:20.097Z,24.73
2017-09-24T02:17:47.686Z,24.67
2017-09-24T02:20:16.019Z,27.00
2017-09-24T02:22:43.580Z,25.40
2017-09-24T02:25:11.138Z,26.97
2017-09-24T02:27:38.691Z,25.20
2017-09-24T02:30:06.274Z,26.20
2017-09-24T02:32:33.830Z,25.60
2017-09-24T02:35:01.398Z,26.63
2017-09-24T02:37:28.955Z,25.80
2017-09-24T02:39:56.506Z,26.73
2017-09-24T02:42:24.089Z,25.87
2017-09-24T02:44:51.652Z,24.80
2017-09-24T02:47:19.205Z,24.93
2017-09-24T02:49:46.761Z,25.03
2017-09-24T02:52:14.322Z,24.93
2017-09-24T02:54:41.906Z,25.87
2017-09-24T02:57:10.231Z,26.93
2017-09-24T02:59:37.795Z,26.10
2017-09-24T03:02:05.354Z,25.50
2017-09-24T03:04:32.910Z,25.40
2017-09-24T03:07:00.494Z,25.47
2017-09-24T03:09:28.041Z,24.83
2017-09-24T03:11:55.597Z,24.23
2017-09-24T03:14:23.163Z,26.30
2017-09-24T03:16:50.713Z,24.73
2017-09-24T03:19:18.305Z,25.00
2017-09-24T03:21:46.627Z,23.47
2017-09-24T03:24:14.179Z,23.73
2017-09-24T03:26:41.740Z,23.57
2017-09-24T03:29:09.318Z,23.27
2017-09-24T03:31:36.905Z,24.93
2017-09-24T03:34:04.473Z,24.70
2017-09-24T03:36:32.792Z,24.10
2017-09-24T03:39:00.348Z,22.93
2017-09-24T03:41:27.911Z,24.27
2017-09-24T03:43:55.696Z,24.53
2017-09-24T03:46:23.261Z,22.50
2017-09-24T03:48:50.824Z,21.80
2017-09-24T03:51:18.383Z,22.00
2017-09-24T03:53:45.951Z,22.27
2017-09-24T03:56:13.701Z,23.00
2017-09-24T03:58:41.254Z,23.57
2017-09-24T04:01:08.814Z,22.30
2017-09-24T04:03:36.486Z,23.90
2017-09-24T04:06:04.041Z,21.43
2017-09-24T04:08:31.618Z,21.83
2017-09-24T04:10:59.174Z,22.93
2017-09-24T04:13:26.730Z,23.43
2017-09-24T04:15:54.291Z,22.50
2017-09-24T04:18:21.850Z,23.43
2017-09-24T04:20:49.437Z,99.23
2017-09-24T04:23:17.802Z,97.87
2017-09-24T04:25:46.140Z,28.77
2017-09-24T04:28:13.691Z,23.00
2017-09-24T04:30:41.246Z,22.50
2017-09-24T04:33:08.829Z,23.27
2017-09-24T04:35:36.386Z,22.13
2017-09-24T04:38:03.942Z,23.10
2017-09-24T04:40:31.493Z,22.10
2017-09-24T04:42:59.049Z,22.27
2017-09-24T04:45:26.629Z,23.27
2017-09-24T04:47:54.188Z,22.57
2017-09-24T04:50:21.743Z,24.87
2017-09-24T04:52:49.297Z,24.57
2017-09-24T04:55:16.848Z,23.47
2017-09-24T04:57:44.433Z,23.43
2017-09-24T05:00:11.988Z,27.13
2017-09-24T05:02:39.544Z,25.13
2017-09-24T05:05:07.113Z,24.50
2017-09-24T05:07:34.675Z,25.87
2017-09-24T05:10:03.027Z,26.07
2017-09-24T05:12:30.585Z,28.40
2017-09-24T05:14:58.148Z,27.30
2017-09-24T05:17:25.706Z,27.90
2017-09-24T05:19:53.265Z,27.40
2017-09-24T05:22:20.842Z,29.10
2017-09-24T05:24:48.434Z,27.60
2017-09-24T05:27:15.991Z,29.97
2017-09-24T05:29:43.546Z,29.10
2017-09-24T05:32:11.098Z,29.70
2017-09-24T05:34:39.449Z,29.30
2017-09-24T05:37:07.002Z,31.37
2017-09-24T05:39:34.557Z,30.80
2017-09-24T05:42:02.117Z,42.43
2017-09-24T05:44:29.678Z,36.43
2017-09-24T05:46:57.266Z,32.83
2017-09-24T05:49:25.590Z,31.27
2017-09-24T05:51:53.646Z,31.80
2017-09-24T05:54:21.206Z,31.80
2017-09-24T05:56:48.765Z,32.10
2017-09-24T05:59:16.356Z,32.70
2017-09-24T06:01:43.918Z,35.20
2017-09-24T06:04:11.482Z,33.20
2017-09-24T06:06:39.045Z,35.10
2017-09-24T06:09:06.603Z,35.53
2017-09-24T06:11:34.188Z,36.70
2017-09-24T06:14:02.509Z,36.97
2017-09-24T06:16:30.070Z,37.40
2017-09-24T06:18:57.630Z,39.60
2017-09-24T06:21:25.188Z,42.73
2017-09-24T06:23:52.776Z,42.73
2017-09-24T06:26:20.341Z,40.50
2017-09-24T06:28:48.673Z,41.57
2017-09-24T06:31:16.230Z,41.93
2017-09-24T06:33:43.782Z,42.97
2017-09-24T06:36:11.378Z,45.00
2017-09-24T06:38:38.938Z,44.33
2017-09-24T06:41:06.497Z,45.97
2017-09-24T06:43:34.050Z,48.40
2017-09-24T06:46:01.606Z,48.73
2017-09-24T06:48:29.193Z,46.47
2017-09-24T06:50:57.522Z,46.53
2017-09-24T06:53:25.844Z,44.03
2017-09-24T06:55:53.402Z,46.23
2017-09-24T06:58:21.738Z,46.00
2017-09-24T07:00:49.326Z,46.17
2017-09-24T07:03:16.879Z,42.73
2017-09-24T07:05:44.443Z,46.30
2017-09-24T07:08:12.014Z,46.33
2017-09-24T07:10:39.576Z,43.60
2017-09-24T07:13:07.157Z,43.27
2017-09-24T07:15:35.478Z,44.17
2017-09-24T07:18:03.042Z,40.40
2017-09-24T07:20:30.621Z,43.53
2017-09-24T07:22:58.211Z,44.20
2017-09-24T07:25:25.793Z,43.03
2017-09-24T07:27:53.342Z,43.40
2017-09-24T07:30:20.896Z,45.10
2017-09-24T07:32:48.458Z,44.83
2017-09-24T07:35:16.029Z,41.73
2017-09-24T07:37:43.609Z,45.40
2017-09-24T07:40:11.166Z,41.10
2017-09-24T07:42:38.717Z,44.20
2017-09-24T07:45:06.269Z,42.80
2017-09-24T07:47:33.829Z,45.60
2017-09-24T07:50:01.408Z,46.27
2017-09-24T07:52:28.967Z,43.33
2017-09-24T07:54:56.522Z,44.17
2017-09-24T07:57:24.145Z,44.67
2017-09-24T07:59:51.697Z,43.50
2017-09-24T08:02:19.283Z,44.67
2017-09-24T08:04:46.848Z,40.67
2017-09-24T08:07:14.425Z,39.27
2017-09-24T08:09:41.985Z,41.97
2017-09-24T08:12:09.543Z,42.77
2017-09-24T08:14:37.125Z,43.90
2017-09-24T08:17:05.450Z,41.47
2017-09-24T08:19:33.026Z,41.23
2017-09-24T08:22:00.577Z,39.97
2017-09-24T08:24:28.131Z,41.57
2017-09-24T08:26:55.714Z,39.10
2017-09-24T08:29:23.285Z,40.03
2017-09-24T08:31:50.846Z,36.93
2017-09-24T08:34:18.406Z,40.13
2017-09-24T08:36:45.974Z,38.40
2017-09-24T08:39:13.557Z,40.00
2017-09-24T08:41:41.903Z,40.17
2017-09-24T08:44:09.467Z,42.37
2017-09-24T08:46:37.021Z,38.70
2017-09-24T08:49:04.594Z,38.77
2017-09-24T08:51:32.970Z,37.03
2017-09-24T08:54:01.301Z,36.17
2017-09-24T08:56:28.874Z,36.67
2017-09-24T08:58:56.436Z,34.63
2017-09-24T09:01:24.016Z,36.30
2017-09-24T09:03:51.617Z,36.90
2017-09-24T09:06:19.171Z,37.03
2017-09-24T09:08:46.732Z,35.00
2017-09-24T09:11:14.292Z,36.93
2017-09-24T09:13:41.862Z,36.00
2017-09-24T09:16:09.446Z,34.20
2017-09-24T09:18:37.006Z,34.23
2017-09-24T09:21:04.565Z,36.53
2017-09-24T09:23:32.126Z,35.63
2017-09-24T09:25:59.682Z,34.07
2017-09-24T09:28:27.270Z,35.43
2017-09-24T09:30:54.823Z,34.67
2017-09-24T09:33:22.382Z,32.73
2017-09-24T09:35:49.938Z,34.00
2017-09-24T09:38:17.498Z,34.40
2017-09-24T09:40:45.094Z,34.13
2017-09-24T09:43:13.419Z,34.70
2017-09-24T09:45:53.036Z,34.00
2017-09-24T09:48:20.630Z,35.90
2017-09-24T09:50:48.185Z,34.67
2017-09-24T09:53:15.739Z,34.37
2017-09-24T09:55:43.295Z,33.60
2017-09-24T09:58:10.896Z,36.83
2017-09-24T10:00:39.232Z,35.13
2017-09-24T10:03:06.804Z,33.17
2017-09-24T10:05:34.359Z,33.97
2017-09-24T10:08:09.902Z,34.20
2017-09-24T10:10:37.461Z,35.70
2017-09-24T10:13:05.029Z,34.13
2017-09-24T10:15:32.625Z,34.50
2017-09-24T10:18:00.984Z,33.97
2017-09-24T10:20:29.313Z,34.57
2017-09-24T10:22:57.157Z,33.00
2017-09-24T10:25:24.718Z,35.00
2017-09-24T10:27:52.549Z,35.00
2017-09-24T10:30:32.770Z,33.60
2017-09-24T10:33:00.354Z,32.47
2017-09-24T10:35:27.907Z,33.80
2017-09-24T10:37:55.467Z,34.30
2017-09-24T10:40:23.030Z,34.90
2017-09-24T10:42:50.582Z,34.20
2017-09-24T10:45:18.173Z,34.30
2017-09-24T10:47:46.494Z,34.20
2017-09-24T10:50:14.050Z,34.50
2017-09-24T10:52:41.603Z,35.87
2017-09-24T10:55:09.162Z,35.40
2017-09-24T10:57:36.745Z,34.30
2017-09-24T11:00:04.306Z,34.27
2017-09-24T11:02:31.866Z,34.33
2017-09-24T11:04:59.430Z,33.60
2017-09-24T11:07:26.986Z,37.47
2017-09-24T11:09:54.570Z,35.43
2017-09-24T11:12:22.891Z,34.67
2017-09-24T11:14:50.469Z,33.23
2017-09-24T11:17:18.032Z,33.60
2017-09-24T11:19:45.590Z,32.50
2017-09-24T11:22:13.171Z,34.77
2017-09-24T11:24:41.505Z,34.53
2017-09-24T11:27:09.082Z,37.07
2017-09-24T11:29:36.641Z,33.13
2017-09-24T11:32:04.197Z,34.20
2017-09-24T11:34:31.778Z,30.87
2017-09-24T11:36:59.338Z,34.37
2017-09-24T11:39:26.897Z,34.43
2017-09-24T11:41:54.454Z,33.40
2017-09-24T11:44:22.022Z,32.50
2017-09-24T11:46:49.606Z,33.50
2017-09-24T11:49:17.175Z,33.03
2017-09-24T11:51:44.734Z,32.47
2017-09-24T11:54:12.295Z,33.57
2017-09-24T11:56:39.850Z,34.07
2017-09-24T11:59:07.438Z,33.03
2017-09-24T12:01:34.993Z,33.87
2017-09-24T12:04:02.550Z,33.53
2017-09-24T12:06:30.110Z,35.20
2017-09-24T12:08:57.690Z,33.83
2017-09-24T12:11:25.266Z,35.67
2017-09-24T12:13:52.821Z,41.13
2017-09-24T12:16:21.144Z,46.27
2017-09-24T12:18:48.697Z,46.80
2017-09-24T12:21:16.254Z,68.50
2017-09-24T12:23:43.814Z,47.90
2017-09-24T12:26:11.371Z,44.47
2017-09-24T12:28:38.928Z,39.50
2017-09-24T12:31:06.485Z,39.37
2017-09-24T12:33:34.813Z,46.30
2017-09-24T12:36:02.373Z,38.13
2017-09-24T12:38:29.930Z,41.83
2017-09-24T12:40:57.490Z,37.93
2017-09-24T12:43:25.047Z,50.43
2017-09-24T12:45:52.608Z,37.60
2017-09-24T12:48:20.165Z,35.50
2017-09-24T12:50:47.714Z,33.60
2017-09-24T12:53:15.298Z,33.53
2017-09-24T12:55:42.861Z,34.87
2017-09-24T12:58:10.415Z,34.67
2017-09-24T13:00:38.006Z,33.97
2017-09-24T13:03:06.326Z,32.10
2017-09-24T13:05:33.885Z,35.50
2017-09-24T13:08:01.468Z,34.73
2017-09-24T13:10:29.025Z,34.67
2017-09-24T13:12:56.578Z,34.60
2017-09-24T13:15:24.172Z,34.83
2017-09-24T13:17:52.489Z,37.07
2017-09-24T13:20:20.048Z,37.43
2017-09-24T13:22:47.639Z,37.73
2017-09-24T13:25:15.202Z,37.57
2017-09-24T13:27:42.753Z,36.90
2017-09-24T13:30:10.333Z,41.57
2017-09-24T13:32:37.886Z,39.63
2017-09-24T13:35:06.946Z,41.60
2017-09-24T13:37:34.498Z,39.50
2017-09-24T13:40:02.087Z,37.70
2017-09-24T13:42:29.673Z,37.10
2017-09-24T13:44:57.997Z,37.97
2017-09-24T13:47:25.563Z,45.43
2017-09-24T13:49:53.121Z,38.73
2017-09-24T13:52:20.686Z,37.97
2017-09-24T13:54:48.281Z,36.40
2017-09-24T13:57:16.614Z,38.47
2017-09-24T13:59:44.171Z,37.67
2017-09-24T14:02:11.727Z,39.83
2017-09-24T14:04:39.290Z,35.33
2017-09-24T14:07:06.870Z,36.40
2017-09-24T14:09:34.430Z,36.43
2017-09-24T14:12:01.986Z,36.93
2017-09-24T14:14:29.541Z,40.80
2017-09-24T14:16:57.098Z,42.57
2017-09-24T14:19:24.678Z,39.70
2017-09-24T14:21:52.237Z,46.60
2017-09-24T14:24:19.798Z,46.63
2017-09-24T14:26:47.345Z,41.97
2017-09-24T14:29:14.902Z,39.47
2017-09-24T14:31:42.486Z,38.70
2017-09-24T14:34:10.825Z,38.93
2017-09-24T14:36:38.393Z,42.23
2017-09-24T14:39:05.946Z,46.67
2017-09-24T14:41:33.499Z,43.80
2017-09-24T14:44:01.080Z,50.40
2017-09-24T14:46:29.403Z,42.43
2017-09-24T14:48:56.958Z,40.77
2017-09-24T14:51:24.514Z,45.57
2017-09-24T14:53:52.074Z,59.23
2017-09-24T14:56:19.658Z,50.47
2017-09-24T14:58:47.225Z,44.13
2017-09-24T15:01:14.785Z,43.00
2017-09-24T15:03:42.345Z,46.77
2017-09-24T15:06:09.924Z,40.93
2017-09-24T15:08:37.504Z,44.27
2017-09-24T15:11:05.068Z,44.53
2017-09-24T15:13:33.393Z,44.50
2017-09-24T15:16:00.954Z,43.83
2017-09-24T15:18:28.506Z,44.17
2017-09-24T15:20:56.097Z,45.80
2017-09-24T15:23:23.654Z,42.37
2017-09-24T15:25:51.209Z,44.83
2017-09-24T15:28:18.762Z,58.77
2017-09-24T15:30:46.341Z,112.27
2017-09-24T15:33:13.922Z,64.73
2017-09-24T15:35:42.242Z,60.93
2017-09-24T15:38:09.797Z,58.27
2017-09-24T15:40:37.369Z,46.13
2017-09-24T15:43:04.925Z,43.43
2017-09-24T15:45:32.517Z,44.93
2017-09-24T15:48:00.074Z,45.40
2017-09-24T15:50:27.631Z,44.50
2017-09-24T15:52:55.189Z,43.40
2017-09-24T15:55:22.750Z,41.97
2017-09-24T15:57:50.345Z,43.50
2017-09-24T16:00:17.910Z,43.00
2017-09-24T16:02:45.471Z,43.77
2017-09-24T16:05:13.054Z,44.80
2017-09-24T16:07:40.606Z,42.90
2017-09-24T16:10:08.187Z,44.73
2017-09-24T16:12:35.753Z,43.30
2017-09-24T16:15:03.316Z,43.30
2017-09-24T16:17:30.872Z,43.63
2017-09-24T16:19:58.432Z,41.23
2017-09-24T16:22:26.022Z,43.53
2017-09-24T16:24:54.343Z,42.97
2017-09-24T16:27:21.901Z,43.47
2017-09-24T16:29:49.457Z,41.70
2017-09-24T16:32:17.025Z,43.70
2017-09-24T16:34:44.611Z,44.00
2017-09-24T16:37:12.166Z,42.97
2017-09-24T16:39:39.721Z,45.87
2017-09-24T16:42:07.299Z,44.60
2017-09-24T16:44:34.858Z,44.67
2017-09-24T16:47:02.447Z,44.67
2017-09-24T16:49:30.002Z,47.17
2017-09-24T16:51:57.562Z,47.63
2017-09-24T16:54:25.114Z,47.13
2017-09-24T16:56:52.676Z,46.67
2017-09-24T16:59:21.026Z,45.60
2017-09-24T17:01:48.591Z,46.90
2017-09-24T17:04:16.928Z,45.10
2017-09-24T17:06:44.486Z,46.70
2017-09-24T17:09:12.058Z,46.13
2017-09-24T17:11:39.650Z,46.23
2017-09-24T17:14:07.974Z,48.20
2017-09-24T17:16:35.533Z,47.10
2017-09-24T17:19:03.088Z,45.50
2017-09-24T17:21:30.654Z,46.77
2017-09-24T17:23:58.241Z,46.83
2017-09-24T17:26:25.803Z,50.20
2017-09-24T17:28:53.375Z,50.73
2017-09-24T17:31:20.937Z,49.27
2017-09-24T17:33:49.261Z,47.10
2017-09-24T17:36:16.846Z,47.47
2017-09-24T17:38:44.403Z,49.50
2017-09-24T17:41:11.963Z,48.17
2017-09-24T17:43:39.533Z,48.40
2017-09-24T17:46:07.162Z,57.73
2017-09-24T17:48:34.862Z,54.17
2017-09-24T17:51:02.426Z,50.40
2017-09-24T17:53:29.986Z,49.83
2017-09-24T17:55:57.540Z,47.57
2017-09-24T17:58:25.095Z,45.33
2017-09-24T18:00:52.689Z,47.63
2017-09-24T18:03:20.250Z,48.63
2017-09-24T18:05:47.805Z,48.33
2017-09-24T18:08:16.123Z,48.43
2017-09-24T18:10:43.681Z,48.97
2017-09-24T18:13:11.335Z,48.23
2017-09-24T18:15:39.030Z,118.07
2017-09-24T18:18:06.598Z,115.30
2017-09-24T18:20:34.161Z,53.87
2017-09-24T18:23:02.485Z,49.83
2017-09-24T18:25:30.149Z,50.67
2017-09-24T18:27:57.705Z,50.27
2017-09-24T18:30:25.265Z,51.33
2017-09-24T18:32:52.924Z,50.27
2017-09-24T18:35:20.577Z,50.03
2017-09-24T18:37:48.184Z,50.93
2017-09-24T18:40:16.539Z,50.50
2017-09-24T18:42:44.094Z,50.23
2017-09-24T18:45:12.615Z,51.60
2017-09-24T18:47:40.170Z,51.40
2017-09-24T18:50:07.753Z,52.00
2017-09-24T18:52:36.082Z,51.03
2017-09-24T18:55:03.654Z,52.37
2017-09-24T18:57:31.201Z,52.27
2017-09-24T18:59:58.755Z,52.07
2017-09-24T19:02:26.347Z,51.87
2017-09-24T19:04:54.679Z,56.73
2017-09-24T19:07:22.243Z,54.03
2017-09-24T19:09:49.795Z,53.90
2017-09-24T19:12:17.356Z,52.70
2017-09-24T19:14:44.943Z,54.03
2017-09-24T19:17:12.510Z,52.37
2017-09-24T19:19:40.089Z,54.50
2017-09-24T19:22:08.415Z,55.93
2017-09-24T19:24:35.971Z,54.17
2017-09-24T19:27:03.553Z,53.50
2017-09-24T19:29:31.116Z,52.83
2017-09-24T19:31:58.665Z,51.27
2017-09-24T19:34:26.227Z,50.93
2017-09-24T19:36:53.788Z,54.23
2017-09-24T19:39:22.341Z,53.50
2017-09-24T19:41:50.823Z,52.40
2017-09-24T19:44:18.382Z,56.50
2017-09-24T19:46:45.958Z,53.57
2017-09-24T19:49:13.510Z,51.10
2017-09-24T19:51:41.398Z,49.13
2017-09-24T19:54:08.956Z,51.93
2017-09-24T19:56:37.473Z,50.40
2017-09-24T19:59:05.798Z,50.87
2017-09-24T20:01:33.358Z,49.67
2017-09-24T20:04:00.950Z,50.60
2017-09-24T20:06:28.502Z,48.37
2017-09-24T20:08:56.355Z,53.93
2017-09-24T20:11:23.921Z,49.63
2017-09-24T20:13:51.829Z,50.57
2017-09-24T20:16:19.414Z,49.97
2017-09-24T20:18:46.971Z,47.20
2017-09-24T20:21:14.530Z,49.27
2017-09-24T20:23:42.094Z,46.83
2017-09-24T20:26:09.655Z,46.73
2017-09-24T20:28:37.241Z,43.13
2017-09-24T20:31:04.802Z,44.83
2017-09-24T20:33:32.374Z,45.97
2017-09-24T20:36:00.707Z,45.30
2017-09-24T20:38:28.261Z,43.63
2017-09-24T20:40:55.847Z,43.07
2017-09-24T20:43:23.406Z,43.07
2017-09-24T20:45:50.959Z,42.43
2017-09-24T20:48:18.524Z,43.63
2017-09-24T20:50:46.078Z,43.50
2017-09-24T20:53:13.742Z,40.87
2017-09-24T20:55:41.305Z,40.03
2017-09-24T20:58:08.866Z,40.50
2017-09-24T21:00:36.425Z,39.40
2017-09-24T21:03:03.994Z,38.87
2017-09-24T21:05:31.574Z,39.00
2017-09-24T21:07:59.894Z,38.33
2017-09-24T21:10:27.447Z,39.17
2017-09-24T21:12:54.998Z,37.87
2017-09-24T21:15:22.553Z,37.27
2017-09-24T21:17:50.153Z,39.20
2017-09-24T21:20:17.709Z,36.57
2017-09-24T21:22:45.342Z,37.60
2017-09-24T21:25:12.902Z,37.53
2017-09-24T21:27:41.309Z,37.87
2017-09-24T21:30:08.909Z,37.90
2017-09-24T21:32:37.226Z,36.57
2017-09-24T21:35:04.785Z,39.10
2017-09-24T21:37:32.338Z,37.10
2017-09-24T21:39:59.890Z,38.43
2017-09-24T21:42:27.470Z,39.40
2017-09-24T21:44:55.025Z,36.97
2017-09-24T21:47:22.577Z,37.17
2017-09-24T21:49:50.157Z,35.90
2017-09-24T21:52:17.718Z,38.47
2017-09-24T21:54:45.315Z,38.83
2017-09-24T21:57:13.633Z,39.00
2017-09-24T21:59:41.186Z,37.83
2017-09-24T22:02:08.742Z,38.97
2017-09-24T22:04:36.297Z,38.10
2017-09-24T22:07:03.874Z,40.00
2017-09-24T22:09:31.437Z,38.17
2017-09-24T22:11:59.053Z,39.03
2017-09-24T22:14:26.611Z,40.57
2017-09-24T22:16:54.165Z,39.80
2017-09-24T22:19:22.533Z,39.00
2017-09-24T22:21:50.102Z,37.87
2017-09-24T22:24:18.463Z,39.30
2017-09-24T22:26:46.022Z,39.37
2017-09-24T22:29:14.366Z,39.03
2017-09-24T22:31:41.947Z,39.87
2017-09-24T22:34:09.516Z,40.40
2017-09-24T22:36:37.842Z,38.07
2017-09-24T22:39:05.399Z,37.93
2017-09-24T22:41:32.965Z,38.10
2017-09-24T22:44:00.546Z,36.43
2017-09-24T22:46:28.105Z,36.47
2017-09-24T22:48:55.658Z,36.07
2017-09-24T22:51:23.209Z,35.60
2017-09-24T22:53:50.771Z,34.40
2017-09-24T22:56:18.366Z,36.63
2017-09-24T22:58:46.688Z,36.70
2017-09-24T23:01:14.267Z,38.03
2017-09-24T23:03:41.827Z,35.63
2017-09-24T23:06:09.386Z,37.83
2017-09-24T23:08:36.978Z,43.53
2017-09-24T23:11:05.298Z,53.77
2017-09-24T23:13:32.861Z,54.00
2017-09-24T23:16:00.420Z,54.37
2017-09-24T23:18:27.982Z,50.00
2017-09-24T23:20:55.574Z,43.40
2017-09-24T23:23:23.133Z,40.43
2017-09-24T23:25:50.690Z,36.83
2017-09-24T23:28:18.248Z,37.10
2017-09-24T23:30:45.807Z,36.97
2017-09-24T23:33:13.390Z,35.83
2017-09-24T23:35:41.738Z,35.77
2017-09-24T23:38:09.397Z,34.47
2017-09-24T23:40:36.950Z,31.77
2017-09-24T23:43:04.505Z,31.97
2017-09-24T23:45:32.091Z,30.90
2017-09-24T23:47:59.646Z,30.67
2017-09-24T23:50:27.994Z,28.90
2017-09-24T23:52:55.554Z,28.23
2017-09-24T23:55:23.125Z,27.10
2017-09-24T23:57:50.702Z,28.07
